Ulan Bator, Mongolia
Current Conditions -  °F | °C
As of 11:00 AM on Saturday 22 Nov 2014 (Local Time) from ZMUB Reporting Station
Smoke Smoke  
Wind Chill:   Ceiling: Unl
Heat Index:   Visibility: 3mi
Dew Point: -4°   Wind: 0mph
Humidity: 61%   Direction: NA
Pressure: 29.85"   Gusts: NA
Location:  47.92°N, 106.91°E
Report Text: ZMUB 220300Z 00000MPS 5000NW FU NSC M14/M20 Q1011 NOSIG RMK QFE651.5 55 NW MO
Loading
Personal Weather Stations






























Interactive Weather Map New forecast layout! Learn more

10-Day Weather Forecast

Advertisements
Track Severe Weather on mobile